Terminal Aerodrome Forecast
Issued by NWS

Home | Current Version | Previous Version | Text Only | Print | Product List | Glossary On
Versions: 1 2 3 4 5 6 7 8 9 10 11 12 13 14 15 16 17 18 19 20 21 22 23 24 25 26 27 28 29 30 31 32 33 34
000
FTUS43 KGRB 290522
TAFRHI
TAF
KRHI 290522Z 2906/3006 04003KT P6SM FEW050 SCT110
     FM290900 00000KT P6SM SCT110 SCT250
     FM291400 06005KT P6SM FEW040 SCT200
     FM292000 08005KT P6SM SCT050 BKN200
     FM300000 VRB02KT P6SM SCT250=

USA.gov is the U.S. government's official web portal to all federal, state and local government web resources and services.